Time;durP1;ratioP1;P1;durP2;ratioP2;P2;SDS_P1;SDS_P2;PMS_P1;PMS_P2;Temp;Humidity;BMP_temperature;BMP_pressure;BME280_temperature;BME280_humidity;BME280_pressure;Samples;Min_cycle;Max_cycle;Signal;HPM_P1;HPM_P2
2024/01/16 00:02:09;;;;;;;22.50;12.40;;;;;;;11.64;56.44;99893.65;106788;1269;25344;-51
2024/01/16 00:04:37;;;;;;;24.00;12.70;;;;;;;11.64;56.50;99898.68;106431;1276;25440;-52
2024/01/16 00:07:04;;;;;;;24.00;12.00;;;;;;;11.63;56.52;99902.35;106582;1270;22535;-53
2024/01/16 00:09:35;;;;;;;29.60;12.50;;;;;;;11.63;56.52;99915.20;106035;1273;1003094;-52
2024/01/16 00:12:03;;;;;;;26.30;13.00;;;;;;;11.64;56.58;99918.65;106788;1270;23181;-53
2024/01/16 00:14:30;;;;;;;26.10;13.10;;;;;;;11.65;56.66;99923.13;106749;1260;25446;-52
2024/01/16 00:16:57;;;;;;;29.30;13.60;;;;;;;11.67;56.67;99919.08;106748;1270;22583;-52
2024/01/16 00:19:24;;;;;;;30.40;12.40;;;;;;;11.70;56.70;99911.14;106757;1258;22534;-52
2024/01/16 00:21:52;;;;;;;24.40;11.70;;;;;;;11.71;56.56;99911.77;106845;1266;25345;-52
2024/01/16 00:24:23;;;;;;;19.10;11.40;;;;;;;11.72;56.51;99914.02;106701;1265;23900;-52
2024/01/16 00:26:50;;;;;;;26.70;12.40;;;;;;;11.70;56.62;99917.23;106745;1268;25391;-53
2024/01/16 00:29:17;;;;;;;17.80;11.30;;;;;;;11.70;56.61;99916.89;105980;1272;1002756;-52
2024/01/16 00:31:45;;;;;;;22.20;11.10;;;;;;;11.70;56.57;99911.83;106708;1267;25325;-53
2024/01/16 00:34:12;;;;;;;25.90;12.60;;;;;;;11.72;56.67;99910.38;106878;1272;25328;-52
2024/01/16 00:36:39;;;;;;;22.10;11.70;;;;;;;11.73;56.69;99909.45;106299;1280;25391;-52
2024/01/16 00:39:08;;;;;;;22.50;10.80;;;;;;;11.76;56.72;99904.66;106714;1257;25370;-52
2024/01/16 00:41:35;;;;;;;25.40;11.30;;;;;;;11.78;56.75;99905.25;106829;1266;22548;-52
2024/01/16 00:44:03;;;;;;;29.10;11.80;;;;;;;11.74;56.79;99900.53;106773;1272;25481;-52
2024/01/16 00:46:30;;;;;;;23.10;11.00;;;;;;;11.72;56.94;99901.34;106711;1258;22685;-52
2024/01/16 00:48:57;;;;;;;25.30;11.30;;;;;;;11.74;56.89;99909.92;106736;1257;25360;-53
2024/01/16 00:51:25;;;;;;;26.00;11.50;;;;;;;11.77;56.91;99909.46;106721;1258;22534;-52
2024/01/16 00:53:52;;;;;;;26.50;11.80;;;;;;;11.77;57.02;99905.29;106418;1267;25453;-52
2024/01/16 00:56:19;;;;;;;26.80;12.50;;;;;;;11.79;56.96;99899.48;106608;1264;25436;-52
2024/01/16 00:58:46;;;;;;;20.30;11.70;;;;;;;11.82;57.00;99891.41;106782;1261;25492;-53
2024/01/16 01:01:13;;;;;;;22.00;11.50;;;;;;;11.85;57.06;99892.82;106512;1264;25367;-52
2024/01/16 01:03:40;;;;;;;28.30;12.60;;;;;;;11.88;56.86;99898.25;106516;1276;25389;-52
2024/01/16 01:06:08;;;;;;;21.20;11.50;;;;;;;11.88;56.80;99890.44;106082;1266;1003122;-52
2024/01/16 01:08:38;;;;;;;24.40;11.40;;;;;;;11.88;56.72;99890.77;106729;1260;25431;-52
2024/01/16 01:11:05;;;;;;;25.10;11.40;;;;;;;11.88;56.65;99895.31;106787;1261;25233;-52
2024/01/16 01:13:32;;;;;;;18.90;11.20;;;;;;;11.87;56.67;99896.02;106772;1258;25363;-52
2024/01/16 01:16:00;;;;;;;16.30;10.30;;;;;;;11.88;56.64;99895.47;106599;1273;25315;-53
2024/01/16 01:18:27;;;;;;;21.70;9.80;;;;;;;11.89;56.61;99897.17;106778;1260;25353;-52
2024/01/16 01:20:56;;;;;;;21.70;10.60;;;;;;;11.90;56.49;99895.41;106631;1264;25484;-52
2024/01/16 01:23:23;;;;;;;21.80;12.40;;;;;;;11.90;56.30;99898.00;105756;1264;1003418;-52
2024/01/16 01:25:51;;;;;;;19.40;10.60;;;;;;;11.89;56.04;99899.96;106784;1260;25314;-52
2024/01/16 01:28:18;;;;;;;22.80;11.10;;;;;;;11.87;55.81;99902.66;106722;1261;24250;-52
2024/01/16 01:30:45;;;;;;;18.80;10.30;;;;;;;11.83;55.62;99904.72;106062;1270;1003080;-52
2024/01/16 01:33:12;;;;;;;17.10;10.20;;;;;;;11.80;55.46;99904.67;106742;1273;25348;-50
2024/01/16 01:35:40;;;;;;;14.70;9.50;;;;;;;11.76;55.42;99908.65;106834;1260;25380;-52
2024/01/16 01:38:08;;;;;;;17.00;11.50;;;;;;;11.71;55.33;99907.27;106796;1261;25325;-52
2024/01/16 01:40:35;;;;;;;14.30;10.10;;;;;;;11.69;55.33;99912.76;106603;1263;25366;-52
2024/01/16 01:43:19;;;;;;;18.20;11.20;;;;;;;11.66;55.12;99914.06;106308;1273;25373;-53
2024/01/16 01:46:06;;;;;;;15.10;10.20;;;;;;;11.62;55.15;99917.70;106729;1260;25447;-53
2024/01/16 01:48:33;;;;;;;15.30;10.10;;;;;;;11.58;55.14;99921.52;106814;1268;24191;-52
2024/01/16 01:51:01;;;;;;;15.70;10.10;;;;;;;11.54;55.08;99923.39;106439;1273;25331;-52
2024/01/16 01:53:29;;;;;;;15.10;9.20;;;;;;;11.52;55.18;99922.27;106652;1264;25350;-52
2024/01/16 01:55:56;;;;;;;15.40;10.30;;;;;;;11.50;55.12;99925.09;105911;1263;1003085;-52
2024/01/16 01:58:23;;;;;;;12.40;9.70;;;;;;;11.48;54.97;99924.81;105708;1273;1003827;-52
2024/01/16 02:00:50;;;;;;;14.10;10.30;;;;;;;11.46;54.85;99922.30;106607;1258;25366;-52
2024/01/16 02:03:17;;;;;;;12.60;9.80;;;;;;;11.44;54.76;99928.80;106466;1263;23001;-53
2024/01/16 02:05:44;;;;;;;10.80;8.60;;;;;;;11.40;54.67;99929.10;106428;1261;22582;-52
2024/01/16 02:08:12;;;;;;;15.20;9.80;;;;;;;11.38;54.74;99929.04;106410;1270;25398;-52
2024/01/16 02:10:39;;;;;;;12.50;8.50;;;;;;;11.36;54.72;99929.62;106558;1273;25464;-51
2024/01/16 02:13:07;;;;;;;13.20;9.90;;;;;;;11.34;54.58;99930.21;106337;1264;25367;-51
2024/01/16 02:15:34;;;;;;;12.50;9.70;;;;;;;11.32;54.45;99924.73;106347;1258;24242;-51
2024/01/16 02:18:01;;;;;;;14.40;9.90;;;;;;;11.28;54.24;99916.20;106549;1260;25400;-52
2024/01/16 02:20:28;;;;;;;13.80;9.50;;;;;;;11.23;54.03;99909.96;106464;1279;25317;-52
2024/01/16 02:22:56;;;;;;;10.90;9.20;;;;;;;11.14;53.93;99909.96;106447;1279;22639;-52
2024/01/16 02:25:23;;;;;;;12.60;9.00;;;;;;;11.11;53.74;99911.48;106832;1264;25346;-52
2024/01/16 02:27:50;;;;;;;14.40;11.30;;;;;;;11.05;53.66;99909.27;106811;1260;24227;-52
2024/01/16 02:30:17;;;;;;;20.00;11.40;;;;;;;11.01;53.63;99904.41;106763;1258;24223;-52
2024/01/16 02:32:44;;;;;;;15.10;12.20;;;;;;;10.98;53.64;99902.10;106773;1260;25402;-52
2024/01/16 02:35:11;;;;;;;14.80;9.80;;;;;;;10.89;53.58;99902.92;106011;1260;1003156;-52
2024/01/16 02:37:38;;;;;;;14.60;9.40;;;;;;;10.76;53.79;99902.23;106575;1264;24676;-52
2024/01/16 02:40:06;;;;;;;14.60;9.50;;;;;;;10.69;53.70;99899.84;106747;1261;25328;-53
2024/01/16 02:42:33;;;;;;;13.10;8.90;;;;;;;10.65;53.56;99899.80;106674;1262;22533;-52
2024/01/16 02:45:01;;;;;;;14.20;8.90;;;;;;;10.70;53.40;99900.15;106303;1279;25328;-51
2024/01/16 02:47:29;;;;;;;11.00;8.60;;;;;;;10.70;53.39;99897.55;106767;1258;22543;-53
2024/01/16 02:49:57;;;;;;;11.70;8.10;;;;;;;10.69;53.34;99892.07;106628;1264;25376;-52
2024/01/16 02:52:24;;;;;;;9.90;8.80;;;;;;;10.67;53.24;99891.59;106784;1260;25366;-52
2024/01/16 02:54:51;;;;;;;10.50;8.40;;;;;;;10.64;53.15;99887.70;106723;1261;25343;-52
2024/01/16 02:57:18;;;;;;;13.40;8.20;;;;;;;10.61;53.30;99886.79;106767;1264;25564;-51
2024/01/16 02:59:45;;;;;;;13.50;9.30;;;;;;;10.59;53.27;99883.23;106373;1264;25560;-52
2024/01/16 03:02:13;;;;;;;11.70;7.70;;;;;;;10.57;53.24;99879.80;106745;1260;25398;-52
2024/01/16 03:04:41;;;;;;;9.60;7.50;;;;;;;10.59;53.18;99878.02;106286;1276;25328;-52
2024/01/16 03:07:08;;;;;;;8.40;6.70;;;;;;;10.60;53.26;99869.30;106612;1266;25487;-52
2024/01/16 03:09:35;;;;;;;10.20;7.00;;;;;;;10.60;53.29;99863.05;106428;1271;25357;-51
2024/01/16 03:12:02;;;;;;;11.00;6.90;;;;;;;10.60;53.15;99864.45;105759;1263;1002747;-52
2024/01/16 03:14:33;;;;;;;7.80;6.40;;;;;;;10.59;53.06;99867.95;106479;1256;24333;-52
2024/01/16 03:17:01;;;;;;;;;;;;;;;10.58;53.09;99867.98;106478;1269;25382;-52
2024/01/16 03:19:28;;;;;;;5.60;4.90;;;;;;;10.56;53.29;99871.00;106796;1260;24231;-51
2024/01/16 03:21:55;;;;;;;8.80;5.60;;;;;;;10.55;53.39;99872.25;106740;1261;25437;-55
2024/01/16 03:24:22;;;;;;;8.10;5.40;;;;;;;10.56;53.39;99872.91;106819;1258;25339;-51
2024/01/16 03:26:49;;;;;;;7.50;5.60;;;;;;;10.56;53.33;99874.47;106914;1261;25317;-52
2024/01/16 03:29:16;;;;;;;6.80;5.50;;;;;;;10.56;53.18;99875.85;106526;1274;25409;-50
2024/01/16 03:31:43;;;;;;;8.20;6.40;;;;;;;10.56;52.89;99880.55;106539;1273;25328;-50
2024/01/16 03:34:10;;;;;;;8.70;7.10;;;;;;;10.55;52.75;99881.63;106766;1258;25411;-51
2024/01/16 03:36:38;;;;;;;8.80;7.50;;;;;;;10.52;52.55;99891.44;106779;1265;25346;-53
2024/01/16 03:39:05;;;;;;;9.50;8.20;;;;;;;10.48;52.36;99890.90;106765;1258;25376;-52
2024/01/16 03:41:32;;;;;;;11.20;8.40;;;;;;;10.42;52.36;99899.61;106743;1267;25328;-50
2024/01/16 03:43:59;;;;;;;11.90;9.00;;;;;;;10.36;52.36;99896.67;105683;1264;1003529;-54
2024/01/16 03:46:26;;;;;;;10.60;8.10;;;;;;;10.33;52.38;99901.64;106754;1268;25407;-52
2024/01/16 03:48:53;;;;;;;11.50;8.80;;;;;;;10.31;52.32;99903.98;106715;1265;25390;-52
2024/01/16 03:51:21;;;;;;;13.10;9.30;;;;;;;10.29;52.49;99898.83;106816;1263;25488;-51
2024/01/16 03:53:48;;;;;;;11.10;8.70;;;;;;;10.28;52.41;99896.63;106726;1256;23874;-52
2024/01/16 03:56:16;;;;;;;12.70;9.60;;;;;;;10.25;52.30;99897.58;106677;1257;22533;-51
2024/01/16 03:58:43;;;;;;;12.80;9.90;;;;;;;10.22;52.41;99901.34;106818;1257;25367;-52
2024/01/16 04:01:10;;;;;;;13.60;10.80;;;;;;;10.19;52.41;99908.90;105984;1263;1003708;-52
2024/01/16 04:03:38;;;;;;;14.20;11.00;;;;;;;10.09;52.68;99913.20;106780;1261;25348;-52
2024/01/16 04:06:16;;;;;;;12.20;10.30;;;;;;;10.10;52.71;99914.05;106801;1256;25480;-52
2024/01/16 04:08:43;;;;;;;13.30;10.30;;;;;;;10.10;52.57;99916.10;106744;1264;25287;-52
2024/01/16 04:11:13;;;;;;;13.60;10.80;;;;;;;10.10;52.67;99917.50;106768;1266;25463;-51
2024/01/16 04:13:42;;;;;;;14.30;11.00;;;;;;;10.02;52.62;99921.03;106791;1256;25348;-50
2024/01/16 04:16:10;;;;;;;16.90;12.30;;;;;;;9.98;52.68;99920.13;106823;1257;25513;-51
2024/01/16 04:18:39;;;;;;;16.40;11.60;;;;;;;9.85;53.01;99920.70;106701;1265;25409;-51
2024/01/16 04:21:06;;;;;;;14.00;11.90;;;;;;;9.80;53.00;99928.67;105982;1258;1003900;-51
2024/01/16 04:23:33;;;;;;;14.80;12.50;;;;;;;9.84;53.00;99930.44;106399;1259;358844;-50
2024/01/16 04:26:01;;;;;;;16.60;12.90;;;;;;;9.87;53.14;99924.29;106017;1256;1003617;-53
2024/01/16 04:28:28;;;;;;;15.30;12.20;;;;;;;9.87;52.96;99929.67;106735;1258;23174;-53
2024/01/16 04:30:55;;;;;;;15.90;12.40;;;;;;;9.84;52.82;99935.99;105938;1260;1014854;-53
2024/01/16 04:33:22;;;;;;;16.70;12.80;;;;;;;9.79;52.81;99943.94;106701;1272;25485;-53
2024/01/16 04:35:50;;;;;;;14.90;12.00;;;;;;;9.74;52.75;99955.87;106731;1256;22604;-53
2024/01/16 04:38:17;;;;;;;15.70;12.30;;;;;;;9.71;52.94;99951.98;106790;1260;25418;-52
2024/01/16 04:40:45;;;;;;;14.80;11.30;;;;;;;9.67;53.10;99960.77;106760;1260;23915;-53
2024/01/16 04:43:12;;;;;;;14.00;12.30;;;;;;;9.62;53.17;99968.02;106799;1260;25426;-53
2024/01/16 04:45:39;;;;;;;15.90;12.70;;;;;;;9.63;53.11;99970.23;106631;1259;25341;-53
2024/01/16 04:48:06;;;;;;;17.20;13.10;;;;;;;9.60;52.97;99972.06;106041;1272;1003039;-53
2024/01/16 04:50:33;;;;;;;17.10;13.40;;;;;;;9.56;53.01;99976.16;106758;1259;25491;-50
2024/01/16 04:53:01;;;;;;;16.20;12.70;;;;;;;9.53;53.29;99984.23;106634;1272;22543;-53
2024/01/16 04:55:29;;;;;;;17.00;13.30;;;;;;;9.51;53.24;99995.02;106769;1261;23416;-51
2024/01/16 04:57:56;;;;;;;16.30;13.20;;;;;;;9.48;53.41;99997.72;106728;1256;24385;-52
2024/01/16 05:00:23;;;;;;;15.60;13.00;;;;;;;9.45;53.33;99999.87;106717;1272;25419;-51
2024/01/16 05:02:51;;;;;;;16.10;12.70;;;;;;;9.43;53.33;99999.39;106788;1259;22659;-53
2024/01/16 05:05:19;;;;;;;16.40;12.90;;;;;;;9.43;53.39;100003.05;106703;1259;25376;-53
2024/01/16 05:07:46;;;;;;;18.90;13.10;;;;;;;9.43;53.33;100008.77;106738;1260;25511;-51
2024/01/16 05:10:13;;;;;;;14.80;12.30;;;;;;;9.43;53.41;100000.45;106705;1258;25508;-52
2024/01/16 05:12:41;;;;;;;14.50;12.70;;;;;;;9.44;53.24;99996.43;106714;1272;25372;-50
2024/01/16 05:15:11;;;;;;;14.20;11.40;;;;;;;9.45;53.27;100001.60;106722;1260;25406;-53
2024/01/16 05:17:38;;;;;;;14.30;11.40;;;;;;;9.46;53.24;99999.69;106800;1260;22536;-53
2024/01/16 05:20:06;;;;;;;18.80;12.90;;;;;;;9.45;53.12;100005.77;106583;1263;24253;-53
2024/01/16 05:22:33;;;;;;;16.20;12.90;;;;;;;9.45;52.84;100009.41;106738;1256;25477;-52
2024/01/16 05:25:00;;;;;;;18.00;13.50;;;;;;;9.43;52.98;100017.23;106830;1259;25353;-50
2024/01/16 05:27:28;;;;;;;15.30;13.10;;;;;;;9.43;53.03;100023.15;106047;1257;1003258;-51
2024/01/16 05:29:56;;;;;;;14.50;12.30;;;;;;;9.41;52.85;100029.05;106835;1259;25342;-50
2024/01/16 05:32:23;;;;;;;16.60;12.80;;;;;;;9.39;52.77;100041.23;106734;1260;25366;-53
2024/01/16 05:34:50;;;;;;;16.00;12.90;;;;;;;9.38;52.70;100049.41;106755;1257;22529;-50
2024/01/16 05:37:19;;;;;;;16.60;12.60;;;;;;;9.36;52.65;100055.02;106710;1257;25320;-53
2024/01/16 05:39:46;;;;;;;16.70;12.30;;;;;;;9.34;52.79;100050.23;105990;1260;1003712;-52
2024/01/16 05:42:14;;;;;;;15.50;11.90;;;;;;;9.31;52.63;100051.70;106547;1260;25338;-52
2024/01/16 05:44:41;;;;;;;13.50;11.00;;;;;;;9.21;52.37;100051.27;106716;1257;25328;-50
2024/01/16 05:47:08;;;;;;;14.10;11.60;;;;;;;9.00;52.31;100057.04;106794;1259;25356;-52
2024/01/16 05:49:35;;;;;;;13.10;10.70;;;;;;;8.76;52.66;100067.52;106725;1260;25494;-50
2024/01/16 05:52:03;;;;;;;15.10;11.20;;;;;;;8.59;53.01;100081.45;105684;1276;1002903;-52
2024/01/16 05:54:30;;;;;;;12.10;10.70;;;;;;;8.43;53.39;100084.78;106795;1257;25415;-53
2024/01/16 05:56:57;;;;;;;12.10;10.80;;;;;;;8.28;53.79;100091.66;105766;1265;1002801;-52
2024/01/16 05:59:24;;;;;;;12.50;9.90;;;;;;;8.17;53.82;100104.84;106692;1259;25328;-52
2024/01/16 06:01:51;;;;;;;12.10;10.80;;;;;;;8.09;54.23;100114.36;106721;1259;23339;-52
2024/01/16 06:04:19;;;;;;;13.10;10.40;;;;;;;8.03;54.53;100114.16;105895;1258;1003710;-52
2024/01/16 06:06:47;;;;;;;11.40;10.10;;;;;;;7.98;54.53;100133.27;106495;1263;24240;-52
2024/01/16 06:09:15;;;;;;;10.70;9.20;;;;;;;7.93;54.58;100138.19;106446;1273;25354;-51
2024/01/16 06:11:42;;;;;;;14.20;11.00;;;;;;;7.90;54.80;100135.15;106792;1261;25364;-52
2024/01/16 06:14:09;;;;;;;11.30;10.00;;;;;;;7.86;54.78;100146.11;106744;1260;25402;-52
2024/01/16 06:16:36;;;;;;;11.40;10.20;;;;;;;7.83;54.83;100152.06;106804;1260;25447;-52
2024/01/16 06:19:04;;;;;;;13.70;10.40;;;;;;;7.80;54.97;100165.58;106536;1272;25417;-52
2024/01/16 06:21:31;;;;;;;10.70;9.50;;;;;;;7.78;55.07;100167.88;106737;1259;22547;-52
2024/01/16 06:23:58;;;;;;;10.10;8.80;;;;;;;7.75;55.04;100173.45;106709;1260;25387;-52
2024/01/16 06:26:26;;;;;;;11.50;9.10;;;;;;;7.75;55.28;100174.83;106772;1261;25487;-52
2024/01/16 06:28:53;;;;;;;12.00;9.90;;;;;;;7.76;55.16;100183.77;106002;1260;1003084;-52
2024/01/16 06:31:20;;;;;;;10.90;9.20;;;;;;;7.79;55.16;100191.50;106705;1256;25350;-52
2024/01/16 06:33:48;;;;;;;10.90;9.20;;;;;;;7.81;55.34;100192.50;106800;1260;22534;-52
2024/01/16 06:36:16;;;;;;;10.30;9.20;;;;;;;7.81;55.08;100193.02;106493;1262;25479;-52
2024/01/16 06:38:43;;;;;;;12.70;9.80;;;;;;;7.82;55.04;100195.23;105861;1272;1003816;-52
2024/01/16 06:41:10;;;;;;;11.10;8.90;;;;;;;7.86;55.15;100215.71;106781;1261;25419;-52
2024/01/16 06:43:37;;;;;;;12.40;9.70;;;;;;;7.85;54.90;100222.46;106857;1260;25359;-52
2024/01/16 06:46:04;;;;;;;11.40;9.40;;;;;;;7.82;54.90;100231.85;106714;1259;25366;-51
2024/01/16 06:48:32;;;;;;;10.80;9.00;;;;;;;7.78;54.99;100239.00;105983;1261;1003042;-53
2024/01/16 06:51:01;;;;;;;12.00;9.50;;;;;;;7.74;55.08;100248.75;106691;1265;24342;-52
2024/01/16 06:53:28;;;;;;;11.70;9.70;;;;;;;7.71;55.04;100250.89;106795;1260;25356;-52
2024/01/16 06:55:55;;;;;;;11.20;9.90;;;;;;;7.70;55.36;100259.88;106534;1264;25405;-52
2024/01/16 06:58:22;;;;;;;10.40;9.20;;;;;;;7.70;55.41;100273.51;106845;1262;22548;-52
2024/01/16 07:00:49;;;;;;;9.80;8.70;;;;;;;7.72;55.41;100276.75;106801;1272;25470;-52
2024/01/16 07:03:17;;;;;;;10.50;9.40;;;;;;;7.74;55.33;100276.88;106739;1273;25342;-52
2024/01/16 07:05:44;;;;;;;11.70;9.60;;;;;;;7.76;55.31;100281.48;106805;1272;25389;-52
2024/01/16 07:08:11;;;;;;;10.30;9.00;;;;;;;7.79;55.13;100286.81;105651;1264;1003042;-52
2024/01/16 07:10:38;;;;;;;11.10;8.90;;;;;;;7.79;55.20;100290.60;106452;1263;25328;-52
2024/01/16 07:13:07;;;;;;;8.20;7.30;;;;;;;7.79;55.28;100284.04;105583;1273;1003810;-52
2024/01/16 07:15:34;;;;;;;9.00;7.50;;;;;;;7.82;55.24;100290.89;106733;1260;25542;-52
2024/01/16 07:18:01;;;;;;;8.70;7.80;;;;;;;7.84;55.10;100300.19;106739;1259;25367;-52
2024/01/16 07:20:29;;;;;;;10.30;8.30;;;;;;;7.85;55.14;100300.15;106341;1272;25419;-53
2024/01/16 07:22:55;;;;;;;8.90;7.60;;;;;;;7.88;55.15;100313.25;106293;1259;27217;-52
2024/01/16 07:25:23;;;;;;;11.80;8.10;;;;;;;7.89;54.90;100314.59;106524;1259;25552;-52
2024/01/16 07:27:50;;;;;;;10.20;8.90;;;;;;;7.87;54.77;100316.02;106007;1260;1003585;-52
2024/01/16 07:30:18;;;;;;;10.30;8.00;;;;;;;7.84;54.66;100315.39;106316;1261;25356;-52
2024/01/16 07:32:45;;;;;;;9.70;8.40;;;;;;;7.82;54.73;100317.84;106802;1256;24253;-52
2024/01/16 07:35:13;;;;;;;8.90;7.70;;;;;;;7.81;54.79;100315.09;106544;1263;25338;-52
2024/01/16 07:37:40;;;;;;;13.00;8.30;;;;;;;7.80;54.64;100316.66;106487;1259;25353;-52
2024/01/16 07:40:09;;;;;;;10.20;8.20;;;;;;;7.79;54.50;100316.00;106787;1272;25478;-52
2024/01/16 07:42:36;;;;;;;9.90;7.50;;;;;;;7.77;54.65;100319.13;106449;1264;24386;-52
2024/01/16 07:45:04;;;;;;;9.90;8.50;;;;;;;7.80;54.65;100322.20;106841;1260;23333;-52
2024/01/16 07:47:33;;;;;;;9.70;8.30;;;;;;;7.83;54.60;100327.14;106826;1268;22606;-52
2024/01/16 07:50:01;;;;;;;9.90;8.80;;;;;;;7.83;54.27;100321.09;106792;1259;25328;-52
2024/01/16 07:52:32;;;;;;;;;;;;;;;7.83;54.25;100317.48;106802;1259;22643;-50
2024/01/16 07:54:59;;;;;;;10.50;8.20;;;;;;;7.79;54.35;100320.29;106674;1260;25375;-52
2024/01/16 07:57:27;;;;;;;9.90;8.30;;;;;;;7.78;54.55;100320.16;106076;1256;1003729;-52
2024/01/16 07:59:54;;;;;;;9.80;8.10;;;;;;;7.78;54.75;100322.40;105911;1260;1003528;-52
2024/01/16 08:02:21;;;;;;;10.80;8.40;;;;;;;7.82;54.88;100335.45;106789;1260;25422;-52
2024/01/16 08:04:51;;;;;;;10.10;8.20;;;;;;;7.84;54.93;100352.50;106725;1261;24226;-52
2024/01/16 08:07:18;;;;;;;11.30;9.30;;;;;;;7.88;54.83;100377.99;105927;1256;1002851;-52
2024/01/16 08:09:45;;;;;;;10.40;8.80;;;;;;;7.93;54.82;100388.79;106696;1259;24352;-52
2024/01/16 08:12:12;;;;;;;12.40;9.00;;;;;;;8.00;54.76;100393.50;105957;1264;1003656;-52
2024/01/16 08:14:39;;;;;;;12.30;9.60;;;;;;;8.03;54.49;100403.29;106509;1262;25364;-52
2024/01/16 08:17:06;;;;;;;14.20;9.30;;;;;;;8.05;54.37;100412.61;106767;1256;25450;-52
2024/01/16 08:19:34;;;;;;;10.80;9.00;;;;;;;8.07;54.40;100420.69;106405;1279;25338;-50
2024/01/16 08:22:04;;;;;;;11.90;9.40;;;;;;;8.07;54.17;100418.62;106759;1260;24361;-52
2024/01/16 08:24:35;;;;;;;10.90;8.50;;;;;;;8.07;54.21;100426.04;106744;1261;25406;-52
2024/01/16 08:27:03;;;;;;;9.70;8.50;;;;;;;8.06;54.06;100425.88;105759;1273;1003048;-52
2024/01/16 08:29:30;;;;;;;10.10;8.30;;;;;;;8.04;54.09;100429.70;105985;1257;1002857;-52
2024/01/16 08:31:57;;;;;;;9.90;7.90;;;;;;;8.05;53.99;100435.41;106719;1261;25367;-52
2024/01/16 08:34:25;;;;;;;9.30;7.30;;;;;;;8.08;54.08;100437.60;106665;1260;25366;-52
2024/01/16 08:36:56;;;;;;;8.80;7.60;;;;;;;8.12;53.95;100439.25;106740;1269;22550;-52
2024/01/16 08:39:24;;;;;;;;;;;;;;;8.16;53.50;100432.80;106732;1261;25381;-50
2024/01/16 08:41:51;;;;;;;10.70;8.10;;;;;;;8.21;53.62;100441.52;106493;1275;25348;-52
2024/01/16 08:44:18;;;;;;;9.20;7.40;;;;;;;8.26;53.28;100452.52;106725;1272;25419;-52
2024/01/16 08:46:46;;;;;;;8.90;7.40;;;;;;;8.29;53.09;100456.11;106758;1272;22541;-52
2024/01/16 08:49:13;;;;;;;9.10;7.70;;;;;;;8.31;53.09;100455.02;105723;1275;1003013;-51
2024/01/16 08:51:46;;;;;;;9.40;7.30;;;;;;;8.33;52.83;100461.20;105690;1272;1003144;-51
2024/01/16 08:54:13;;;;;;;8.20;7.00;;;;;;;8.34;52.75;100470.18;106390;1273;25512;-51
2024/01/16 08:56:40;;;;;;;9.50;8.00;;;;;;;8.38;52.81;100478.08;106687;1256;25398;-52
2024/01/16 08:59:10;;;;;;;10.50;8.60;;;;;;;8.43;52.62;100484.39;106416;1272;25350;-52
2024/01/16 09:01:37;;;;;;;10.70;8.00;;;;;;;8.46;52.44;100491.77;106583;1273;24266;-52
2024/01/16 09:04:04;;;;;;;9.30;7.70;;;;;;;8.47;52.05;100497.11;106751;1272;25512;-51
2024/01/16 09:06:31;;;;;;;9.10;8.10;;;;;;;8.47;52.11;100494.17;106142;1258;1003622;-51
2024/01/16 09:08:58;;;;;;;8.80;7.70;;;;;;;8.46;51.95;100488.83;106739;1272;25483;-54
2024/01/16 09:11:27;;;;;;;9.00;7.50;;;;;;;8.48;51.96;100488.98;106737;1272;25401;-52
2024/01/16 09:13:54;;;;;;;8.90;8.00;;;;;;;8.52;52.01;100489.40;106725;1272;25390;-52
2024/01/16 09:16:21;;;;;;;9.10;7.70;;;;;;;8.57;51.76;100487.77;105945;1259;1003262;-52
2024/01/16 09:18:48;;;;;;;10.00;8.50;;;;;;;8.62;51.82;100490.80;106765;1272;25373;-52
2024/01/16 09:21:16;;;;;;;9.40;7.80;;;;;;;8.65;51.62;100493.65;105999;1272;1002844;-52
2024/01/16 09:23:43;;;;;;;9.80;8.50;;;;;;;8.68;51.59;100503.47;106472;1272;25356;-52
2024/01/16 09:26:11;;;;;;;9.40;8.10;;;;;;;8.69;51.43;100505.70;106839;1272;23300;-52
2024/01/16 09:28:39;;;;;;;8.70;7.40;;;;;;;8.70;51.42;100504.14;106333;1279;25412;-52
2024/01/16 09:31:06;;;;;;;8.70;7.30;;;;;;;8.69;51.47;100515.55;106487;1275;25367;-52
2024/01/16 09:33:34;;;;;;;9.90;8.10;;;;;;;8.70;51.51;100523.84;106609;1275;24034;-52
2024/01/16 09:36:02;;;;;;;9.30;8.30;;;;;;;8.73;51.48;100522.40;105987;1260;1003445;-52
2024/01/16 09:38:31;;;;;;;10.70;8.30;;;;;;;8.78;51.59;100525.41;106710;1262;25339;-52
2024/01/16 09:40:59;;;;;;;10.90;8.60;;;;;;;8.85;51.19;100533.09;106038;1272;1003564;-52
2024/01/16 09:43:29;;;;;;;10.00;8.50;;;;;;;8.84;50.80;100540.02;106726;1256;22527;-52
2024/01/16 09:46:01;;;;;;;10.00;8.80;;;;;;;8.80;50.78;100536.10;106834;1262;25493;-51
2024/01/16 09:48:30;;;;;;;13.70;9.60;;;;;;;8.78;50.96;100534.23;105743;1260;1003026;-52
2024/01/16 09:50:58;;;;;;;10.80;8.90;;;;;;;8.77;50.99;100536.50;106770;1261;22657;-51
2024/01/16 09:53:25;;;;;;;9.40;7.90;;;;;;;8.77;50.98;100535.29;106721;1260;22554;-52
2024/01/16 09:55:54;;;;;;;10.60;8.80;;;;;;;8.77;50.78;100536.49;106539;1263;25552;-52
2024/01/16 09:58:21;;;;;;;11.20;8.70;;;;;;;8.78;50.99;100533.89;106383;1272;25412;-53
2024/01/16 10:00:52;;;;;;;8.90;7.80;;;;;;;8.81;50.92;100545.42;106358;1280;25353;-52
2024/01/16 10:03:19;;;;;;;10.10;8.60;;;;;;;8.84;50.66;100554.71;106818;1272;25404;-52
2024/01/16 10:05:48;;;;;;;11.20;9.40;;;;;;;8.85;50.61;100566.63;106761;1272;25416;-51
2024/01/16 10:08:15;;;;;;;9.70;8.60;;;;;;;8.88;50.69;100576.96;106468;1272;23905;-51
2024/01/16 10:10:43;;;;;;;11.60;9.00;;;;;;;8.90;50.43;100581.58;106237;1275;25336;-51
2024/01/16 10:13:17;;;;;;;9.90;8.70;;;;;;;8.94;50.30;100585.84;105493;1275;1003085;-52
2024/01/16 10:15:44;;;;;;;9.50;8.30;;;;;;;8.97;50.09;100588.55;106472;1272;22534;-52
2024/01/16 10:18:32;;;;;;;10.10;8.60;;;;;;;9.00;50.06;100594.03;106656;1264;25542;-52
2024/01/16 10:20:59;;;;;;;10.40;9.00;;;;;;;9.06;50.11;100600.86;106132;1272;1003123;-52
2024/01/16 10:23:29;;;;;;;9.90;8.90;;;;;;;9.11;50.26;100605.60;106031;1272;1003104;-52
2024/01/16 10:26:09;;;;;;;10.20;8.90;;;;;;;9.16;50.07;100615.72;106045;1272;1002463;-53
2024/01/16 10:28:38;;;;;;;10.50;8.80;;;;;;;9.20;49.97;100617.89;106605;1272;25403;-52
2024/01/16 10:31:10;;;;;;;10.80;9.40;;;;;;;9.21;49.71;100620.30;106761;1272;24255;-52
2024/01/16 10:33:39;;;;;;;10.50;8.90;;;;;;;9.21;49.48;100627.39;106586;1278;22537;-52
2024/01/16 10:36:14;;;;;;;9.80;8.80;;;;;;;9.24;49.26;100626.83;106355;1277;25250;-52
2024/01/16 10:38:43;;;;;;;12.00;9.20;;;;;;;9.27;48.92;100625.39;106042;1256;1003797;-52
2024/01/16 10:41:12;;;;;;;9.30;8.40;;;;;;;9.30;48.28;100626.39;106740;1276;25522;-53
2024/01/16 10:43:41;;;;;;;11.40;8.90;;;;;;;9.32;47.95;100629.11;106755;1279;25298;-52
2024/01/16 10:46:16;;;;;;;10.40;8.20;;;;;;;9.35;47.96;100633.89;105995;1262;1003101;-53
2024/01/16 10:49:07;;;;;;;10.60;7.70;;;;;;;9.38;47.45;100637.64;106779;1279;26631;-53
2024/01/16 10:51:35;;;;;;;11.40;7.40;;;;;;;9.42;46.95;100638.77;105985;1272;1002605;-52
2024/01/16 10:54:11;;;;;;;9.10;7.60;;;;;;;9.46;46.72;100639.91;106769;1272;24559;-52
2024/01/16 10:56:38;;;;;;;9.10;7.40;;;;;;;9.50;46.64;100642.77;106781;1279;23920;-52
2024/01/16 10:59:24;;;;;;;9.20;8.10;;;;;;;9.56;46.48;100646.81;106546;1265;25370;-52
2024/01/16 11:01:52;;;;;;;10.20;7.70;;;;;;;9.64;46.41;100651.16;106546;1275;24245;-52
2024/01/16 11:04:22;;;;;;;7.60;6.80;;;;;;;9.69;45.87;100653.32;106715;1272;22602;-53
2024/01/16 11:06:53;;;;;;;9.00;7.60;;;;;;;9.76;45.84;100654.38;105979;1272;1002902;-52
2024/01/16 11:09:20;;;;;;;8.20;7.20;;;;;;;9.81;45.55;100658.45;106620;1272;25317;-52
2024/01/16 11:11:48;;;;;;;8.70;7.20;;;;;;;9.86;45.46;100663.20;106593;1272;25441;-52
2024/01/16 11:14:16;;;;;;;9.80;7.50;;;;;;;9.91;45.26;100665.34;106486;1272;25396;-52
2024/01/16 11:16:43;;;;;;;10.50;8.00;;;;;;;9.95;45.19;100667.51;106396;1272;22561;-51
2024/01/16 11:19:11;;;;;;;10.30;7.80;;;;;;;9.98;45.02;100670.23;106400;1273;22520;-53